Search for airport 
image banner adimage banner ad
image banner ad

SVCG - Carbones Del Guasare

Located in Zulia, Venezuela

ICAO - SVCG, IATA - CUV

Data provided by Airmate  

General information

Coordinates: N11°0'29" W72°16'26"
Elevation is 99 feet MSL.
 
View others Airports in Zulia

Operational data

Open for public use
Current time UTC:
Current local time:
Weather at : SVMC - Maracaibo / La Chinita Intl ( 78 km )
TAF: TAF SVMC 302200Z 3100/0100 08010KT 9999 SCT013 TX34/3119Z TN23/3108Z BECMG 3100/3104 10002KT 9000 -DZ BKN016
View NOTAMs / SUP AIP / TFR affecting this airport [VIEW]
Communications frequencies: [VIEW]

Runways:

RWY identifierQFULength (ft)Width (ft)SurfaceLDA (ft)
1093°345070ASP
28273°345070ASP

Airport contact information

Address: Zulia Venezuela

Satellite view of SVCG